createdAt,value
2022-09-05T00:00:19.337Z,99.90
2022-09-05T00:02:58.433Z,99.90
2022-09-05T00:06:02.744Z,99.80
2022-09-05T00:08:34.144Z,99.80
2022-09-05T00:11:39.694Z,99.90
2022-09-05T00:15:15.280Z,99.70
2022-09-05T00:17:17.639Z,99.60
2022-09-05T00:24:20.941Z,99.70
2022-09-05T00:24:32.146Z,99.70
2022-09-05T00:26:10.380Z,99.60
2022-09-05T00:28:44.034Z,99.90
2022-09-05T00:31:53.957Z,99.90
2022-09-05T00:35:13.351Z,99.90
2022-09-05T00:37:44.565Z,99.90
2022-09-05T00:40:33.088Z,99.90
2022-09-05T00:43:11.523Z,99.90
2022-09-05T00:46:00.001Z,99.90
2022-09-05T00:48:53.360Z,99.90
2022-09-05T00:51:39.085Z,99.90
2022-09-05T00:54:56.928Z,99.90
2022-09-05T00:57:47.929Z,99.90
2022-09-05T01:00:18.605Z,99.90
2022-09-05T01:03:09.768Z,99.90
2022-09-05T01:05:55.098Z,99.90
2022-09-05T01:08:40.880Z,99.90
2022-09-05T01:11:33.760Z,99.90
2022-09-05T01:14:26.224Z,99.90
2022-09-05T01:17:17.477Z,99.90
2022-09-05T01:20:20.630Z,99.90
2022-09-05T01:22:53.976Z,99.90
2022-09-05T01:25:31.364Z,99.90
2022-09-05T01:29:17.248Z,99.90
2022-09-05T01:31:37.772Z,99.90
2022-09-05T01:34:21.697Z,99.90
2022-09-05T01:37:29.703Z,99.90
2022-09-05T01:40:34.614Z,99.90
2022-09-05T01:43:25.672Z,99.90
2022-09-05T01:46:27.626Z,99.90
2022-09-05T01:49:20.469Z,99.90
2022-09-05T01:51:48.055Z,99.90
2022-09-05T01:54:33.956Z,99.90
2022-09-05T01:57:19.612Z,99.90
2022-09-05T02:00:05.484Z,99.90
2022-09-05T02:02:50.216Z,99.90
2022-09-05T02:05:48.218Z,99.90
2022-09-05T02:08:34.002Z,99.90
2022-09-05T02:11:01.895Z,99.90
2022-09-05T02:13:56.387Z,99.90
2022-09-05T02:16:31.300Z,99.90
2022-09-05T02:19:12.366Z,99.90
2022-09-05T02:21:56.115Z,99.90
2022-09-05T02:24:38.229Z,99.90
2022-09-05T02:28:04.615Z,99.90
2022-09-05T02:30:29.903Z,99.90
2022-09-05T02:33:37.289Z,99.90
2022-09-05T02:36:49.231Z,99.90
2022-09-05T02:45:08.516Z,99.90
2022-09-05T02:45:09.420Z,99.90
2022-09-05T02:45:37.644Z,99.90
2022-09-05T02:48:27.830Z,99.90
2022-09-05T02:57:24.468Z,99.90
2022-09-05T02:57:47.027Z,99.90
2022-09-05T02:58:04.665Z,99.90
2022-09-05T03:00:03.104Z,99.90
2022-09-05T03:02:49.610Z,99.90
2022-09-05T03:05:41.521Z,99.90
2022-09-05T03:08:16.860Z,99.90
2022-09-05T03:11:15.258Z,99.90
2022-09-05T03:14:15.572Z,99.90
2022-09-05T03:17:25.773Z,99.90
2022-09-05T03:20:21.080Z,99.90
2022-09-05T03:23:16.670Z,99.90
2022-09-05T03:26:04.557Z,99.90
2022-09-05T03:29:09.899Z,99.90
2022-09-05T03:31:52.114Z,99.90
2022-09-05T03:34:25.656Z,99.90
2022-09-05T03:37:40.857Z,99.90
2022-09-05T03:40:46.950Z,99.90
2022-09-05T03:43:30.862Z,99.90
2022-09-05T03:46:01.625Z,99.90
2022-09-05T03:48:39.775Z,99.90
2022-09-05T03:57:08.774Z,99.90
2022-09-05T03:57:11.362Z,99.90
2022-09-05T03:57:52.595Z,99.90
2022-09-05T04:00:28.043Z,99.90
2022-09-05T04:07:32.433Z,99.90
2022-09-05T04:08:16.455Z,99.90
2022-09-05T04:08:50.280Z,99.90
2022-09-05T04:11:47.378Z,99.90
2022-09-05T04:14:24.449Z,99.90
2022-09-05T04:16:58.527Z,99.90
2022-09-05T04:19:33.123Z,99.90
2022-09-05T04:22:32.969Z,99.90
2022-09-05T04:25:15.348Z,99.90
2022-09-05T04:28:27.448Z,99.90
2022-09-05T04:31:40.666Z,99.90
2022-09-05T04:34:23.123Z,99.90
2022-09-05T04:37:02.122Z,99.90
2022-09-05T04:39:30.321Z,99.90
2022-09-05T04:42:24.265Z,99.90
2022-09-05T04:45:10.025Z,99.90
2022-09-05T04:47:43.100Z,99.90
2022-09-05T04:50:23.415Z,99.90
2022-09-05T04:53:00.902Z,99.90
2022-09-05T04:55:38.379Z,99.90
2022-09-05T04:58:22.739Z,99.90
2022-09-05T05:01:04.602Z,99.90
2022-09-05T05:06:01.308Z,99.90
2022-09-05T05:06:46.956Z,99.90
2022-09-05T05:09:15.528Z,99.90
2022-09-05T05:17:55.706Z,99.90
2022-09-05T05:18:13.921Z,99.90
2022-09-05T05:18:16.390Z,99.90
2022-09-05T05:20:55.948Z,99.90
2022-09-05T05:23:40.618Z,99.90
2022-09-05T05:26:33.560Z,99.90
2022-09-05T05:29:19.546Z,99.90
2022-09-05T05:31:52.285Z,99.90
2022-09-05T05:34:36.775Z,99.90
2022-09-05T05:37:25.484Z,99.90
2022-09-05T05:40:19.275Z,99.90
2022-09-05T05:42:47.078Z,99.90
2022-09-05T05:45:27.437Z,99.90
2022-09-05T05:48:03.111Z,99.90
2022-09-05T05:51:13.701Z,99.90
2022-09-05T05:54:00.682Z,99.90
2022-09-05T05:56:51.042Z,99.90
2022-09-05T05:59:56.355Z,99.90
2022-09-05T06:03:25.724Z,99.90
2022-09-05T06:06:33.235Z,99.90
2022-09-05T06:13:02.272Z,99.90
2022-09-05T06:15:02.951Z,99.90
2022-09-05T06:15:57.424Z,99.90
2022-09-05T06:19:00.907Z,99.90
2022-09-05T06:22:08.299Z,99.90
2022-09-05T06:24:58.804Z,99.90
2022-09-05T06:28:19.332Z,99.90
2022-09-05T06:31:31.196Z,99.90
2022-09-05T06:34:35.670Z,99.90
2022-09-05T06:37:21.206Z,99.90
2022-09-05T06:39:51.834Z,99.90
2022-09-05T06:42:42.494Z,99.90
2022-09-05T06:45:49.965Z,99.90
2022-09-05T06:49:28.874Z,99.90
2022-09-05T06:51:49.099Z,99.90
2022-09-05T06:54:34.765Z,99.90
2022-09-05T06:57:31.789Z,99.90
2022-09-05T07:00:19.636Z,99.90
2022-09-05T07:03:07.414Z,99.90
2022-09-05T07:05:47.570Z,99.90
2022-09-05T07:08:36.766Z,99.90
2022-09-05T07:11:33.046Z,99.90
2022-09-05T07:14:17.635Z,99.90
2022-09-05T07:16:50.942Z,99.90
2022-09-05T07:19:27.436Z,99.90
2022-09-05T07:22:46.062Z,99.90
2022-09-05T07:24:56.614Z,99.90
2022-09-05T07:27:49.880Z,99.90
2022-09-05T07:30:27.563Z,99.90
2022-09-05T07:32:58.736Z,99.90
2022-09-05T07:35:41.960Z,99.90
2022-09-05T07:38:21.661Z,99.90
2022-09-05T07:40:55.367Z,99.90
2022-09-05T07:43:28.022Z,99.90
2022-09-05T07:46:17.442Z,99.90
2022-09-05T07:48:53.419Z,99.90
2022-09-05T07:56:47.081Z,99.90
2022-09-05T07:57:08.983Z,99.90
2022-09-05T07:57:32.653Z,99.90
2022-09-05T08:00:27.087Z,99.90
2022-09-05T08:03:08.743Z,99.90
2022-09-05T08:05:42.718Z,99.90
2022-09-05T08:08:17.877Z,99.90
2022-09-05T08:11:22.243Z,99.90
2022-09-05T08:13:42.549Z,99.90
2022-09-05T08:16:21.974Z,99.90
2022-09-05T08:19:46.351Z,99.90
2022-09-05T08:22:21.412Z,99.90
2022-09-05T08:25:02.195Z,99.90
2022-09-05T08:27:56.175Z,99.90
2022-09-05T08:30:26.355Z,99.90
2022-09-05T08:33:10.356Z,99.90
2022-09-05T08:35:57.720Z,99.90
2022-09-05T08:38:40.917Z,99.90
2022-09-05T08:41:50.354Z,99.90
2022-09-05T08:46:42.371Z,99.90
2022-09-05T08:47:46.190Z,99.90
2022-09-05T08:50:33.009Z,99.90
2022-09-05T08:53:26.344Z,99.90
2022-09-05T08:56:35.787Z,99.90
2022-09-05T08:59:31.546Z,99.90
2022-09-05T09:02:45.676Z,99.90
2022-09-05T09:05:14.125Z,99.90
2022-09-05T09:08:15.728Z,99.90
2022-09-05T09:11:07.979Z,99.90
2022-09-05T09:13:56.580Z,99.90
2022-09-05T09:16:54.264Z,99.90
2022-09-05T09:19:29.437Z,99.90
2022-09-05T09:22:25.435Z,99.90
2022-09-05T09:25:14.725Z,99.90
2022-09-05T09:28:45.287Z,99.90
2022-09-05T09:31:12.226Z,99.90
2022-09-05T09:33:50.396Z,99.90
2022-09-05T09:36:54.051Z,99.90
2022-09-05T09:39:44.704Z,99.90
2022-09-05T09:42:32.775Z,99.90
2022-09-05T09:45:28.111Z,99.90
2022-09-05T09:48:33.971Z,99.90
2022-09-05T09:51:39.370Z,99.90
2022-09-05T09:54:26.905Z,99.90
2022-09-05T09:57:05.385Z,99.90
2022-09-05T09:59:32.839Z,99.90
2022-09-05T10:04:55.590Z,99.90
2022-09-05T10:10:50.595Z,99.90
2022-09-05T10:11:08.156Z,99.90
2022-09-05T10:11:54.085Z,99.90
2022-09-05T10:14:49.451Z,99.90
2022-09-05T10:17:42.387Z,99.90
2022-09-05T10:20:29.283Z,99.90
2022-09-05T10:23:34.936Z,99.90
2022-09-05T10:26:27.500Z,99.90
2022-09-05T10:29:36.598Z,99.90
2022-09-05T10:35:10.554Z,99.90
2022-09-05T10:35:26.422Z,99.90
2022-09-05T10:38:11.408Z,99.90
2022-09-05T10:41:11.321Z,99.90
2022-09-05T10:43:49.112Z,99.90
2022-09-05T10:46:51.511Z,99.90
2022-09-05T10:49:30.244Z,99.90
2022-09-05T10:52:18.850Z,99.90
2022-09-05T10:55:13.545Z,99.90
2022-09-05T10:57:47.732Z,99.90
2022-09-05T11:02:27.978Z,99.90
2022-09-05T11:04:18.550Z,99.90
2022-09-05T11:06:53.388Z,99.90
2022-09-05T11:09:46.720Z,99.90
2022-09-05T11:12:57.522Z,99.90
2022-09-05T11:16:04.625Z,99.90
2022-09-05T11:19:15.059Z,99.90
2022-09-05T11:22:05.228Z,99.90
2022-09-05T11:24:57.965Z,99.90
2022-09-05T11:27:36.459Z,99.90
2022-09-05T11:30:30.569Z,99.90
2022-09-05T11:36:56.519Z,99.90
2022-09-05T11:39:58.553Z,99.90
2022-09-05T11:40:02.701Z,99.90
2022-09-05T11:43:01.911Z,99.90
2022-09-05T11:45:54.507Z,99.90
2022-09-05T11:48:34.322Z,99.90
2022-09-05T11:51:08.074Z,99.90
2022-09-05T11:53:59.668Z,99.90
2022-09-05T11:56:45.938Z,99.90
2022-09-05T11:59:13.900Z,99.90
2022-09-05T12:01:57.256Z,99.90
2022-09-05T12:05:49.739Z,99.90
2022-09-05T12:07:57.769Z,99.90
2022-09-05T12:10:47.076Z,99.90
2022-09-05T12:13:37.756Z,99.90
2022-09-05T12:16:38.084Z,99.90
2022-09-05T12:19:20.047Z,99.90
2022-09-05T12:22:23.875Z,99.90
2022-09-05T12:25:25.681Z,99.90
2022-09-05T12:29:27.132Z,99.90
2022-09-05T12:32:36.597Z,99.90
2022-09-05T12:36:10.818Z,99.90
2022-09-05T12:40:27.655Z,99.90
2022-09-05T12:41:37.661Z,99.90
2022-09-05T12:43:53.091Z,99.90
2022-09-05T12:46:46.295Z,99.90
2022-09-05T12:49:35.215Z,99.90
2022-09-05T12:52:19.166Z,99.90
2022-09-05T12:54:56.928Z,99.90
2022-09-05T13:02:18.652Z,99.90
2022-09-05T13:03:08.459Z,99.90
2022-09-05T13:03:27.941Z,99.90
2022-09-05T13:06:25.641Z,99.90
2022-09-05T13:09:01.559Z,99.90
2022-09-05T13:14:48.471Z,99.90
2022-09-05T13:14:55.030Z,99.90
2022-09-05T13:17:53.483Z,99.90
2022-09-05T13:20:32.492Z,99.90
2022-09-05T13:23:13.180Z,99.90
2022-09-05T13:25:43.956Z,99.90
2022-09-05T13:28:14.985Z,99.90
2022-09-05T13:38:07.998Z,99.90
2022-09-05T13:38:08.166Z,99.90
2022-09-05T13:38:12.465Z,99.90
2022-09-05T13:40:20.509Z,99.90
2022-09-05T13:43:26.740Z,99.90
2022-09-05T13:46:17.318Z,99.90
2022-09-05T13:51:55.621Z,99.90
2022-09-05T13:54:38.610Z,99.90
2022-09-05T13:57:41.302Z,99.40
2022-09-05T14:00:26.675Z,98.60
2022-09-05T14:03:38.301Z,99.40
2022-09-05T14:06:45.217Z,98.60
2022-09-05T14:12:04.244Z,98.80
2022-09-05T14:18:19.936Z,98.40
2022-09-05T14:21:15.883Z,98.00
2022-09-05T14:23:57.500Z,98.50
2022-09-05T14:26:34.459Z,98.40
2022-09-05T14:29:33.117Z,98.30
2022-09-05T14:37:37.384Z,98.10
2022-09-05T14:37:39.369Z,97.80
2022-09-05T14:39:01.428Z,97.40
2022-09-05T14:42:09.374Z,98.00
2022-09-05T14:45:07.832Z,97.70
2022-09-05T14:48:26.204Z,97.40
2022-09-05T14:51:25.202Z,97.60
2022-09-05T14:54:11.792Z,97.60
2022-09-05T14:58:37.062Z,98.00
2022-09-05T15:02:49.023Z,97.40
2022-09-05T15:03:02.417Z,97.90
2022-09-05T15:05:41.095Z,97.70
2022-09-05T15:10:06.426Z,98.00
2022-09-05T15:12:21.744Z,98.30
2022-09-05T15:14:11.559Z,98.30
2022-09-05T15:16:50.284Z,98.90
2022-09-05T15:20:07.569Z,99.00
2022-09-05T15:22:59.627Z,98.70
2022-09-05T15:26:25.568Z,98.60
2022-09-05T15:29:14.830Z,98.70
2022-09-05T15:31:43.857Z,98.30
2022-09-05T15:34:27.577Z,99.10
2022-09-05T15:36:56.587Z,99.30
2022-09-05T15:40:10.759Z,99.70
2022-09-05T15:42:56.080Z,99.40
2022-09-05T15:45:32.804Z,99.30
2022-09-05T15:48:12.604Z,99.70
2022-09-05T15:50:56.751Z,99.90
2022-09-05T15:53:28.931Z,99.90
2022-09-05T15:56:14.172Z,99.90
2022-09-05T15:59:02.061Z,99.90
2022-09-05T16:01:59.028Z,99.90
2022-09-05T16:10:28.798Z,99.90
2022-09-05T16:10:37.976Z,99.90
2022-09-05T16:11:17.666Z,99.90
2022-09-05T16:13:52.524Z,99.90
2022-09-05T16:21:13.014Z,99.90
2022-09-05T16:23:16.806Z,99.90
2022-09-05T16:23:36.937Z,99.90
2022-09-05T16:25:03.010Z,99.90
2022-09-05T16:27:42.963Z,99.90
2022-09-05T16:30:19.657Z,99.90
2022-09-05T16:32:51.654Z,99.90
2022-09-05T16:35:25.103Z,99.90
2022-09-05T16:38:03.291Z,99.90
2022-09-05T16:40:39.294Z,99.90
2022-09-05T16:43:15.728Z,99.90
2022-09-05T16:45:55.819Z,99.90
2022-09-05T16:48:39.833Z,99.90
2022-09-05T16:51:15.752Z,99.90
2022-09-05T16:53:59.029Z,99.90
2022-09-05T16:56:53.873Z,99.90
2022-09-05T16:59:26.512Z,99.90
2022-09-05T17:02:17.967Z,99.90
2022-09-05T17:05:15.924Z,99.90
2022-09-05T17:07:47.040Z,99.90
2022-09-05T17:10:25.629Z,99.90
2022-09-05T17:12:54.607Z,99.90
2022-09-05T17:15:36.304Z,99.90
2022-09-05T17:18:21.541Z,99.90
2022-09-05T17:20:56.705Z,99.90
2022-09-05T17:29:18.185Z,99.90
2022-09-05T17:29:49.894Z,99.90
2022-09-05T17:32:39.233Z,99.90
2022-09-05T17:35:17.695Z,99.90
2022-09-05T17:38:11.882Z,99.90
2022-09-05T17:41:10.784Z,99.90
2022-09-05T17:43:40.953Z,99.90
2022-09-05T17:46:22.655Z,99.90
2022-09-05T17:49:18.610Z,99.90
2022-09-05T17:51:51.292Z,99.90
2022-09-05T17:54:26.978Z,99.90
2022-09-05T17:56:54.525Z,99.90
2022-09-05T17:59:23.095Z,99.90
2022-09-05T18:02:03.184Z,99.90
2022-09-05T18:04:51.168Z,99.90
2022-09-05T18:07:34.714Z,99.90
2022-09-05T18:10:15.239Z,99.90
2022-09-05T18:13:31.306Z,99.90
2022-09-05T18:15:43.862Z,99.90
2022-09-05T18:19:03.780Z,99.90
2022-09-05T18:21:23.634Z,99.90
2022-09-05T18:24:01.472Z,99.90
2022-09-05T18:26:39.446Z,99.90
2022-09-05T18:29:57.273Z,99.90
2022-09-05T18:32:45.509Z,99.90
2022-09-05T18:35:37.699Z,99.90
2022-09-05T18:38:51.689Z,99.90
2022-09-05T18:41:27.665Z,99.90
2022-09-05T18:44:13.699Z,99.90
2022-09-05T18:46:54.583Z,99.90
2022-09-05T18:50:18.118Z,99.90
2022-09-05T18:52:29.930Z,99.90
2022-09-05T18:56:13.599Z,99.90
2022-09-05T18:58:12.784Z,99.90
2022-09-05T19:00:46.615Z,99.90
2022-09-05T19:03:24.901Z,99.90
2022-09-05T19:05:55.600Z,99.90
2022-09-05T19:08:43.231Z,99.90
2022-09-05T19:11:28.519Z,99.90
2022-09-05T19:14:26.590Z,99.90
2022-09-05T19:16:48.457Z,99.90
2022-09-05T19:19:24.615Z,99.90
2022-09-05T19:22:33.129Z,99.90
2022-09-05T19:24:48.398Z,99.90
2022-09-05T19:28:13.955Z,99.90
2022-09-05T19:36:47.390Z,99.90
2022-09-05T19:37:08.028Z,99.90
2022-09-05T19:37:08.705Z,99.90
2022-09-05T19:42:10.138Z,99.90
2022-09-05T19:47:49.001Z,99.90
2022-09-05T19:47:51.861Z,99.90
2022-09-05T19:48:03.842Z,99.90
2022-09-05T19:50:32.104Z,99.90
2022-09-05T19:53:07.688Z,99.90
2022-09-05T19:55:37.699Z,99.90
2022-09-05T19:58:28.719Z,99.90
2022-09-05T20:01:03.202Z,99.90
2022-09-05T20:03:40.214Z,99.90
2022-09-05T20:06:29.628Z,99.90
2022-09-05T20:09:11.021Z,99.90
2022-09-05T20:11:45.956Z,99.90
2022-09-05T20:14:42.095Z,99.90
2022-09-05T20:17:32.145Z,99.90
2022-09-05T20:20:30.560Z,99.90
2022-09-05T20:23:07.867Z,99.90
2022-09-05T20:25:43.778Z,99.90
2022-09-05T20:28:13.547Z,99.90
2022-09-05T20:31:01.813Z,99.90
2022-09-05T20:33:57.893Z,99.90
2022-09-05T20:42:52.453Z,99.90
2022-09-05T20:43:20.653Z,99.90
2022-09-05T20:43:24.587Z,99.90
2022-09-05T20:45:44.539Z,99.90
2022-09-05T20:54:09.894Z,99.90
2022-09-05T20:54:15.237Z,99.90
2022-09-05T20:54:19.063Z,99.90
2022-09-05T20:56:54.914Z,99.90
2022-09-05T20:59:32.575Z,99.90
2022-09-05T21:02:06.434Z,99.90
2022-09-05T21:04:38.463Z,99.90
2022-09-05T21:07:15.162Z,99.90
2022-09-05T21:10:04.296Z,99.90
2022-09-05T21:12:44.952Z,99.90
2022-09-05T21:15:52.085Z,99.90
2022-09-05T21:18:24.195Z,99.90
2022-09-05T21:21:28.038Z,99.90
2022-09-05T21:24:18.172Z,99.90
2022-09-05T21:26:48.438Z,99.90
2022-09-05T21:29:25.581Z,99.90
2022-09-05T21:32:01.642Z,99.90
2022-09-05T21:34:33.472Z,99.90
2022-09-05T21:37:07.166Z,99.90
2022-09-05T21:39:59.169Z,99.90
2022-09-05T21:47:32.977Z,99.90
2022-09-05T21:47:47.160Z,99.90
2022-09-05T21:48:08.777Z,99.90
2022-09-05T21:50:46.280Z,99.90
2022-09-05T21:55:10.722Z,99.90
2022-09-05T21:59:17.124Z,99.90
2022-09-05T21:59:29.035Z,99.90
2022-09-05T22:01:53.269Z,99.90
2022-09-05T22:04:21.803Z,99.90
2022-09-05T22:06:50.351Z,99.90
2022-09-05T22:09:18.121Z,99.90
2022-09-05T22:11:51.124Z,99.90
2022-09-05T22:14:20.671Z,99.90
2022-09-05T22:16:50.805Z,99.90
2022-09-05T22:19:37.435Z,99.90
2022-09-05T22:22:16.514Z,99.90
2022-09-05T22:24:52.445Z,99.90
2022-09-05T22:27:21.107Z,99.90
2022-09-05T22:29:51.181Z,99.90
2022-09-05T22:32:25.884Z,99.90
2022-09-05T22:35:27.741Z,99.90
2022-09-05T22:38:10.952Z,99.90
2022-09-05T22:40:40.955Z,99.90
2022-09-05T22:43:10.169Z,99.90
2022-09-05T22:45:39.229Z,99.90
2022-09-05T22:48:14.743Z,99.90
2022-09-05T22:50:43.070Z,99.90
2022-09-05T22:53:13.105Z,99.90
2022-09-05T22:55:43.008Z,99.90
2022-09-05T22:58:12.983Z,99.90
2022-09-05T23:00:44.918Z,99.90
2022-09-05T23:03:12.392Z,99.90
2022-09-05T23:05:39.862Z,99.90
2022-09-05T23:08:07.647Z,99.90
2022-09-05T23:10:36.832Z,99.90
2022-09-05T23:13:06.619Z,99.90
2022-09-05T23:15:34.926Z,99.90
2022-09-05T23:18:03.909Z,99.90
2022-09-05T23:20:32.219Z,99.90
2022-09-05T23:23:04.230Z,99.90
2022-09-05T23:25:32.699Z,99.90
2022-09-05T23:28:04.150Z,99.90
2022-09-05T23:30:31.918Z,99.90
2022-09-05T23:32:59.664Z,99.90
2022-09-05T23:35:27.151Z,99.90
2022-09-05T23:37:54.803Z,99.90
2022-09-05T23:40:23.054Z,99.90
2022-09-05T23:42:51.908Z,99.90
2022-09-05T23:45:19.903Z,99.90
2022-09-05T23:47:47.762Z,99.90
2022-09-05T23:50:15.641Z,99.90
2022-09-05T23:52:44.943Z,99.90
2022-09-05T23:55:14.820Z,99.90
2022-09-05T23:57:42.875Z,99.90
